Pomona Park, Florida
Current Conditions -  °F | °C
As of 11:50 AM on Saturday 25 Oct 2014 (Local Time) from KXFL Reporting Station
Clear Clear  
Wind Chill: 75°   Ceiling: Unl
Heat Index: 75°   Visibility: 7mi
Dew Point: 55°   Wind: 7mph
Humidity: 50%   Direction: 340°NNW
Pressure: 30.01"   Gusts: NA
Location:  29.5°N, 81.59°W
Report Text: KXFL 251550Z 34006KT 7SM CLR 24/13 A3001
Loading
Personal Weather Stations






























Interactive Weather Map
Tropical Storm Tracking
New forecast layout! Learn more

10-Day Weather Forecast

Advertisements
Track Severe Weather on mobile